Barreiros, Brazil
Current Conditions -  °F | °C
As of 4:00 AM on Thursday 27 Nov 2014 (Local Time) from SBRF Reporting Station
Rain Showers Rain Showers  
Wind Chill: 75°   Ceiling: 1000
Heat Index: 75°   Visibility: 6mi
Dew Point: 73°   Wind: 12mph
Humidity: 94%   Direction: 100°E
Pressure: 29.88"   Gusts: NA
Location:  8.82°S, 35.19°W
Report Text: SBRF 270700Z 10010KT 9999 VCSH BKN010 SCT025 24/23 Q1012
Loading
Personal Weather Stations






























Interactive Weather Map New forecast layout! Learn more

10-Day Weather Forecast

Advertisements
Track Severe Weather on mobile